Time;durP1;ratioP1;P1;durP2;ratioP2;P2;SDS_P1;SDS_P2;PMS_P1;PMS_P2;Temp;Humidity;BMP_temperature;BMP_pressure;BME280_temperature;BME280_humidity;BME280_pressure;Samples;Min_cycle;Max_cycle;Signal;HPM_P1;HPM_P2
2023/01/25 00:02:03;;;;;;;18.30;10.52;;;17.60;71.60;;;18.54;39.94;100616.06;5082169;27;20129;-83
2023/01/25 00:04:29;;;;;;;22.20;10.57;;;17.60;71.60;;;18.56;39.97;100610.28;5084786;27;20051;-82
2023/01/25 00:06:55;;;;;;;27.98;12.02;;;17.60;71.50;;;18.51;39.97;100610.31;5066475;27;20107;-83
2023/01/25 00:09:22;;;;;;;24.35;11.18;;;17.60;71.50;;;18.51;39.83;100615.81;5062912;27;20097;-83
2023/01/25 00:11:48;;;;;;;20.77;9.77;;;17.60;71.30;;;18.53;39.82;100614.44;5081280;27;20514;-82
2023/01/25 00:14:14;;;;;;;23.00;11.00;;;17.60;71.40;;;18.49;39.79;100604.28;5098472;27;20161;-83
2023/01/25 00:16:40;;;;;;;23.33;11.25;;;17.60;71.40;;;18.50;39.89;100608.69;5061964;27;20509;-82
2023/01/25 00:19:07;;;;;;;24.50;11.52;;;17.60;71.40;;;18.50;39.88;100603.19;5062616;27;20035;-82
2023/01/25 00:21:33;;;;;;;28.60;12.00;;;17.60;71.40;;;18.50;40.03;100605.94;5085577;27;20106;-82
2023/01/25 00:24:00;;;;;;;22.90;11.13;;;17.60;71.50;;;18.51;40.01;100611.13;5082759;27;20068;-83
2023/01/25 00:26:29;;;;;;;25.55;11.25;;;17.60;71.40;;;18.50;39.94;100605.94;5082492;27;20043;-83
2023/01/25 00:28:55;;;;;;;19.88;10.15;;;17.60;71.50;;;18.51;39.99;100608.38;5060730;27;20057;-83
2023/01/25 00:32:00;;;;;;;26.25;11.52;;;17.60;71.40;;;18.51;39.97;100607.56;5095976;27;20039;-83
2023/01/25 00:34:27;;;;;;;27.75;11.95;;;17.60;71.50;;;18.50;39.95;100605.94;5126690;27;20401;-83
2023/01/25 00:37:12;;;;;;;20.83;11.23;;;17.60;71.40;;;18.50;39.79;100608.69;5113435;27;20031;-83
2023/01/25 00:39:39;;;;;;;24.70;11.73;;;17.60;71.40;;;18.49;39.62;100605.09;5093138;27;20053;-84
2023/01/25 00:42:09;;;;;;;20.85;10.45;;;17.60;71.30;;;18.49;39.79;100605.09;5083257;27;20122;-84
2023/01/25 00:44:37;;;;;;;18.50;9.47;;;17.60;71.40;;;18.52;40.01;100603.72;5088956;27;20039;-84
2023/01/25 00:47:04;;;;;;;25.35;11.40;;;17.60;71.50;;;18.50;39.67;100604.00;5115739;27;20035;-83
2023/01/25 00:49:30;;;;;;;18.15;9.32;;;17.50;71.50;;;18.49;39.98;100596.84;5095446;27;20060;-83
2023/01/25 00:51:56;;;;;;;21.42;10.65;;;17.60;71.40;;;18.52;39.81;100598.22;5099881;27;20059;-83
2023/01/25 00:54:23;;;;;;;25.52;10.82;;;17.60;71.50;;;18.50;39.95;100597.69;5067093;27;20043;-83
2023/01/25 00:56:51;;;;;;;18.50;9.68;;;17.60;72.30;;;18.47;40.02;100590.00;5081504;27;20061;-83
2023/01/25 00:59:17;;;;;;;18.20;10.10;;;17.60;71.60;;;18.44;40.06;100589.47;5082473;27;20139;-83
2023/01/25 01:01:43;;;;;;;17.27;9.60;;;17.60;71.50;;;18.48;39.89;100583.41;5097414;27;20039;-82
2023/01/25 01:04:10;;;;;;;20.65;9.35;;;17.50;71.60;;;18.46;39.85;100577.38;5082063;27;20048;-83
2023/01/25 01:06:39;;;;;;;25.52;11.60;;;17.50;71.50;;;18.45;40.22;100579.31;5113224;27;20044;-83
2023/01/25 01:09:07;;;;;;;18.77;8.85;;;17.50;71.70;;;18.46;40.05;100574.63;5113545;27;20051;-83
2023/01/25 01:11:33;;;;;;;22.33;11.10;;;17.50;71.50;;;18.48;39.84;100577.91;5076737;28;20056;-83
2023/01/25 01:13:59;;;;;;;16.30;9.43;;;17.50;71.50;;;18.48;39.88;100573.25;5078367;28;20043;-83
2023/01/25 01:16:25;;;;;;;16.98;8.18;;;17.50;71.50;;;18.49;39.80;100571.31;5094617;28;20063;-83
2023/01/25 01:18:52;;;;;;;19.60;9.13;;;17.50;71.50;;;18.46;39.89;100563.63;5087002;28;20059;-84
2023/01/25 01:21:18;;;;;;;18.55;8.65;;;17.50;71.50;;;18.45;39.95;100568.31;5075694;28;20063;-83
2023/01/25 01:23:44;;;;;;;20.08;8.60;;;17.50;71.60;;;18.42;40.07;100555.97;5093326;28;20061;-84
2023/01/25 01:26:12;;;;;;;18.92;10.20;;;17.50;71.50;;;18.43;40.26;100552.09;5097584;28;20039;-83
2023/01/25 01:28:39;;;;;;;19.83;10.43;;;17.50;71.50;;;18.42;40.15;100541.41;5058758;28;20031;-83
2023/01/25 01:31:17;;;;;;;17.02;8.70;;;17.50;71.50;;;18.45;39.93;100540.84;5061323;28;20032;-83
2023/01/25 01:33:52;;;;;;;20.58;9.35;;;17.50;71.50;;;18.46;40.24;100536.16;5065363;28;20077;-83
2023/01/25 01:36:21;;;;;;;16.60;8.63;;;17.50;71.60;;;18.47;40.05;100526.81;5110619;28;20039;-83
2023/01/25 01:38:47;;;;;;;17.90;9.70;;;17.50;71.80;;;18.41;40.01;100526.00;5083312;28;20414;-83
2023/01/25 01:41:14;;;;;;;21.30;8.98;;;17.50;71.70;;;18.41;40.06;100526.81;5088328;28;20047;-83
2023/01/25 01:43:40;;;;;;;18.20;9.05;;;17.40;71.60;;;18.41;39.90;100517.78;5082756;28;20048;-83
2023/01/25 01:46:36;;;;;;;17.83;9.23;;;17.50;71.70;;;18.42;39.92;100519.44;5079416;28;20126;-84
2023/01/25 01:49:12;;;;;;;17.73;9.13;;;17.40;71.70;;;18.42;39.88;100520.25;5101659;28;20451;-83
2023/01/25 01:52:12;;;;;;;19.48;8.70;;;17.50;71.60;;;18.39;39.92;100525.47;5096636;28;20039;-83
2023/01/25 01:54:57;;;;;;;15.20;8.05;;;17.50;71.50;;;18.39;39.89;100517.22;5111826;28;20043;-83
2023/01/25 01:57:47;;;;;;;15.98;8.10;;;17.50;71.60;;;18.37;40.02;100516.72;5099189;28;20048;-84
2023/01/25 02:00:22;;;;;;;15.50;6.95;;;17.50;71.50;;;18.37;40.13;100513.97;5080521;27;20039;-83
2023/01/25 02:02:49;;;;;;;21.63;9.75;;;17.50;71.50;;;18.36;40.13;100506.81;5079761;28;20031;-83
2023/01/25 02:05:47;;;;;;;19.30;8.25;;;17.50;71.50;;;18.35;40.29;100486.78;5096061;28;20378;-83
2023/01/25 02:08:13;;;;;;;13.85;8.18;;;17.50;71.60;;;18.37;40.24;100490.06;5108801;28;20070;-83
2023/01/25 02:10:39;;;;;;;21.15;8.85;;;17.50;71.70;;;18.39;40.27;100493.34;5059526;28;20093;-84
2023/01/25 02:13:05;;;;;;;17.02;7.85;;;17.50;72.00;;;18.41;40.32;100493.84;5076499;28;20100;-83
2023/01/25 02:15:41;;;;;;;15.45;8.10;;;17.50;72.00;;;18.39;40.12;100487.00;5111071;28;20487;-83
2023/01/25 02:18:09;;;;;;;16.17;8.07;;;17.50;71.90;;;18.37;40.26;100498.31;5075971;28;20036;-83
2023/01/25 02:20:50;;;;;;;15.82;8.18;;;17.40;71.80;;;18.32;40.37;100492.00;5106901;27;20040;-83
2023/01/25 02:23:46;;;;;;;13.88;7.53;;;17.40;72.70;;;18.29;40.37;100489.81;5079001;28;20058;-84
2023/01/25 02:26:12;;;;;;;18.40;9.20;;;17.40;71.70;;;18.34;40.33;100476.91;5106359;28;20097;-84
2023/01/25 02:28:59;;;;;;;15.98;8.93;;;17.40;71.80;;;18.32;40.04;100502.97;5094806;28;20372;-84
2023/01/25 02:31:25;;;;;;;13.13;7.75;;;17.50;71.80;;;18.34;40.33;100496.13;5092328;28;20046;-84
2023/01/25 02:33:54;;;;;;;14.40;7.50;;;17.40;71.60;;;18.31;40.34;100502.16;5096046;28;20053;-84
2023/01/25 02:36:31;;;;;;;17.52;8.07;;;17.40;71.60;;;18.38;40.48;100496.38;5071118;28;20468;-83
2023/01/25 02:39:02;;;;;;;14.05;6.95;;;17.50;72.00;;;18.38;40.35;100502.69;5077047;28;20062;-83
2023/01/25 02:41:39;;;;;;;12.15;7.53;;;17.50;72.20;;;18.35;40.48;100491.44;5092696;28;20100;-84
2023/01/25 02:44:25;;;;;;;16.95;8.35;;;17.50;72.00;;;18.31;40.47;100504.09;5077593;28;20240;-84
2023/01/25 02:46:52;;;;;;;16.38;8.30;;;17.50;72.00;;;18.30;40.68;100502.47;5091415;28;20292;-84
2023/01/25 02:49:18;;;;;;;14.80;7.60;;;17.50;71.90;;;18.28;40.82;100505.50;5072751;28;20039;-84
2023/01/25 02:51:47;;;;;;;15.30;6.75;;;17.40;71.70;;;18.27;40.35;100503.84;5072759;28;20058;-84
2023/01/25 02:54:16;;;;;;;12.82;7.50;;;17.50;71.80;;;18.28;40.31;100496.44;5092615;28;20048;-84
2023/01/25 02:56:42;;;;;;;10.68;6.70;;;17.50;71.70;;;18.30;40.34;100492.28;5089732;28;20047;-84
2023/01/25 02:59:09;;;;;;;17.08;8.05;;;17.40;71.70;;;18.27;40.47;100495.63;5074263;28;20068;-84
2023/01/25 03:01:36;;;;;;;13.70;6.95;;;17.40;71.90;;;18.26;40.54;100485.72;5090192;28;20043;-84
2023/01/25 03:04:04;;;;;;;13.65;7.93;;;17.40;71.90;;;18.28;40.46;100489.00;5060281;28;20039;-84
2023/01/25 03:06:31;;;;;;;16.83;7.45;;;17.40;71.90;;;18.25;40.33;100489.56;5058969;28;20057;-84
2023/01/25 03:08:57;;;;;;;9.55;6.35;;;17.40;71.90;;;18.25;40.48;100489.56;5078077;28;20043;-84
2023/01/25 03:11:23;;;;;;;10.27;6.35;;;17.40;71.90;;;18.24;40.53;100487.91;5068874;28;20049;-83
2023/01/25 03:13:49;;;;;;;15.30;6.50;;;17.40;71.80;;;18.25;40.34;100486.84;5067536;28;20037;-83
2023/01/25 03:16:16;;;;;;;13.05;6.38;;;17.40;72.70;;;18.24;40.30;100496.16;5079025;28;20477;-83
2023/01/25 03:18:41;;;;;;;14.95;6.57;;;17.40;71.90;;;18.22;40.58;100487.41;5054882;28;20052;-83
2023/01/25 03:21:11;;;;;;;12.10;6.38;;;17.40;71.90;;;18.22;40.52;100496.47;5054604;28;20089;-83
2023/01/25 03:23:37;;;;;;;16.33;8.10;;;17.40;71.80;;;18.24;40.20;100493.41;5056550;28;20032;-83
2023/01/25 03:26:09;;;;;;;9.63;5.82;;;17.40;71.90;;;18.21;40.36;100492.06;5056152;28;20044;-83
2023/01/25 03:28:35;;;;;;;12.65;7.07;;;17.40;71.70;;;18.20;40.13;100490.41;5090006;28;20048;-83
2023/01/25 03:31:02;;;;;;;13.63;7.57;;;17.40;71.70;;;18.22;40.35;100492.91;5055002;28;20048;-83
2023/01/25 03:33:27;;;;;;;14.00;6.40;;;17.40;71.70;;;18.21;40.43;100491.22;5068881;28;20054;-83
2023/01/25 03:35:54;;;;;;;11.35;6.95;;;17.40;71.60;;;18.19;40.31;100494.28;5061113;28;20036;-83
2023/01/25 03:38:21;;;;;;;10.85;6.25;;;17.40;72.40;;;18.18;40.46;100489.06;5058545;28;20074;-83
2023/01/25 03:40:47;;;;;;;12.88;5.97;;;17.40;71.60;;;18.20;40.25;100481.38;5071853;28;20040;-83
2023/01/25 03:43:13;;;;;;;8.90;5.63;;;17.40;71.70;;;18.14;40.67;100480.56;5066402;28;20040;-83
2023/01/25 03:45:40;;;;;;;18.08;7.03;;;17.40;71.80;;;18.21;40.46;100477.50;5075361;28;20047;-83
2023/01/25 03:48:06;;;;;;;11.52;6.07;;;17.40;71.70;;;18.18;40.41;100464.34;5057942;28;20040;-83
2023/01/25 03:50:32;;;;;;;10.43;6.30;;;17.30;71.60;;;18.19;40.14;100476.97;5054392;28;20484;-83
2023/01/25 03:53:02;;;;;;;12.63;5.97;;;17.30;71.50;;;18.15;40.35;100470.41;5068830;28;20380;-83
2023/01/25 03:55:28;;;;;;;11.52;5.80;;;17.40;71.60;;;18.21;40.44;100470.06;5070619;28;20041;-83
2023/01/25 03:57:54;;;;;;;11.15;5.80;;;17.40;71.70;;;18.16;40.68;100470.09;5049224;28;20047;-83
2023/01/25 04:00:20;;;;;;;16.30;6.68;;;17.30;71.70;;;18.15;40.26;100471.22;5073145;28;20066;-84
2023/01/25 04:02:46;;;;;;;13.43;7.28;;;17.30;71.70;;;18.16;40.29;100472.03;5080878;28;20036;-84
2023/01/25 04:05:13;;;;;;;9.30;5.40;;;17.40;71.60;;;18.15;40.50;100471.22;5095748;28;20036;-84
2023/01/25 04:07:38;;;;;;;7.68;5.25;;;17.40;72.40;;;18.17;40.26;100458.03;5064387;28;20044;-84
2023/01/25 04:10:05;;;;;;;10.95;6.80;;;17.30;71.50;;;18.16;40.37;100461.06;5044530;28;20059;-84
2023/01/25 04:12:31;;;;;;;10.82;5.35;;;17.30;71.60;;;18.17;40.44;100451.72;5060781;28;20051;-84
2023/01/25 04:14:57;;;;;;;11.50;5.80;;;17.30;71.50;;;18.16;40.44;100455.56;5056154;28;20031;-84
2023/01/25 04:17:23;;;;;;;9.10;5.90;;;17.40;71.60;;;18.14;40.36;100450.38;5092239;28;20518;-83
2023/01/25 04:19:50;;;;;;;10.73;5.70;;;17.40;71.60;;;18.15;40.47;100448.44;5057922;28;20061;-83
2023/01/25 04:22:16;;;;;;;8.95;5.85;;;17.40;71.60;;;18.13;40.25;100439.66;5056788;28;20436;-84
2023/01/25 04:24:42;;;;;;;11.38;6.28;;;17.30;72.30;;;18.15;40.36;100438.28;5075558;28;20171;-84
2023/01/25 04:27:09;;;;;;;8.32;5.30;;;17.30;71.50;;;18.13;40.41;100434.97;5075648;28;20040;-83
2023/01/25 04:29:35;;;;;;;8.88;4.32;;;17.30;71.50;;;18.10;40.13;100437.50;5057409;28;20149;-84
2023/01/25 04:32:01;;;;;;;10.18;5.40;;;17.30;71.30;;;18.13;40.43;100432.22;5071770;28;20155;-84
2023/01/25 04:34:27;;;;;;;6.45;4.28;;;17.40;71.60;;;18.12;40.47;100432.53;5057695;28;20094;-84
2023/01/25 04:36:53;;;;;;;8.00;5.72;;;17.40;71.40;;;18.12;40.38;100438.03;5057822;28;20040;-84
2023/01/25 04:39:19;;;;;;;13.38;5.07;;;17.30;71.50;;;18.13;40.32;100431.41;5057745;28;20043;-84
2023/01/25 04:41:45;;;;;;;9.93;5.57;;;17.30;71.60;;;18.14;40.13;100435.78;5068804;28;20036;-84
2023/01/25 04:44:12;;;;;;;8.30;5.13;;;17.30;71.60;;;18.09;40.35;100428.44;5072477;28;20122;-84
2023/01/25 04:46:37;;;;;;;10.45;5.85;;;17.30;71.50;;;18.08;40.45;100436.94;5073426;28;20065;-84
2023/01/25 04:49:04;;;;;;;10.93;6.25;;;17.30;71.60;;;18.09;40.24;100428.44;5066732;28;20028;-83
2023/01/25 04:51:30;;;;;;;9.32;5.82;;;17.30;71.50;;;18.09;40.23;100427.59;5052229;28;20048;-83
2023/01/25 04:53:56;;;;;;;7.75;4.70;;;17.30;71.50;;;18.06;40.43;100431.72;5071267;28;20553;-83
2023/01/25 04:56:22;;;;;;;9.05;5.28;;;17.30;71.30;;;18.05;40.47;100427.34;5059097;28;20036;-82
2023/01/25 04:58:49;;;;;;;8.25;4.80;;;17.30;71.30;;;18.08;40.51;100414.97;5057826;28;20582;-83
2023/01/25 05:01:15;;;;;;;7.05;4.88;;;17.30;71.50;;;18.08;40.25;100420.47;5073422;28;20043;-83
2023/01/25 05:03:41;;;;;;;8.32;4.88;;;17.30;71.50;;;18.08;40.33;100412.22;5060008;28;20048;-83
2023/01/25 05:06:07;;;;;;;9.57;5.45;;;17.30;71.60;;;18.06;40.39;100411.69;5075579;28;20043;-83
2023/01/25 05:08:33;;;;;;;7.03;4.43;;;17.20;71.40;;;18.04;40.20;100411.16;5040691;28;20040;-83
2023/01/25 05:10:59;;;;;;;8.38;4.70;;;17.20;71.40;;;18.06;40.39;100414.44;5106936;28;20124;-83
2023/01/25 05:13:25;;;;;;;10.70;4.85;;;17.20;71.50;;;18.04;40.40;100417.47;5096225;28;20036;-83
2023/01/25 05:15:51;;;;;;;9.13;5.43;;;17.20;71.50;;;18.05;40.31;100410.88;5060264;28;20406;-83
2023/01/25 05:18:17;;;;;;;8.02;4.80;;;17.20;71.40;;;18.03;40.29;100413.06;5096962;28;20122;-83
2023/01/25 05:20:44;;;;;;;6.20;3.90;;;17.20;71.50;;;18.02;40.32;100416.13;5076353;28;20428;-83
2023/01/25 05:23:10;;;;;;;9.30;4.53;;;17.20;71.50;;;18.05;40.28;100410.06;5096732;28;20039;-82
2023/01/25 05:28:21;;;;;;;7.80;4.20;;;17.20;71.60;;;18.04;40.13;100409.25;5079918;28;20117;-82
2023/01/25 05:30:47;;;;;;;6.70;4.38;;;17.20;71.50;;;18.05;40.18;100404.56;5079281;28;20048;-82
2023/01/25 05:33:13;;;;;;;6.18;4.28;;;17.20;71.40;;;18.05;40.25;100410.06;5076936;28;20038;-83
2023/01/25 05:35:39;;;;;;;5.28;3.65;;;17.20;71.70;;;17.98;40.34;100404.88;5113364;27;20124;-83
2023/01/25 05:38:05;;;;;;;9.38;4.45;;;17.20;71.60;;;17.98;40.31;100397.44;5095282;28;20062;-83
2023/01/25 05:40:31;;;;;;;6.18;4.40;;;17.20;71.50;;;17.99;40.41;100393.63;5090973;28;20526;-82
2023/01/25 05:42:58;;;;;;;5.65;3.95;;;17.20;71.50;;;17.99;40.33;100396.34;5078763;28;20043;-82
2023/01/25 05:45:24;;;;;;;7.18;4.20;;;17.10;71.50;;;18.01;40.20;100398.81;5111025;28;20111;-83
2023/01/25 05:47:55;;;;;;;6.10;3.65;;;17.20;71.40;;;18.02;40.13;100399.66;5080700;28;20040;-83
2023/01/25 05:50:22;;;;;;;7.00;3.88;;;17.20;71.20;;;18.00;40.13;100408.97;5076851;28;20035;-83
2023/01/25 05:52:48;;;;;;;7.95;4.75;;;17.20;71.30;;;18.02;40.20;100411.44;5078853;28;20039;-83
2023/01/25 05:55:14;;;;;;;7.82;4.63;;;17.20;71.40;;;17.99;40.30;100403.78;5064072;28;20047;-82
2023/01/25 05:57:41;;;;;;;7.25;4.57;;;17.20;71.50;;;17.97;40.34;100404.06;5079064;28;20035;-82
2023/01/25 06:00:08;;;;;;;6.03;4.38;;;17.10;71.50;;;17.97;40.45;100398.56;5097031;28;20140;-82
2023/01/25 06:02:34;;;;;;;9.90;4.93;;;17.10;71.60;;;17.96;40.50;100401.59;5063259;28;20051;-82
2023/01/25 06:05:00;;;;;;;5.93;3.80;;;17.10;71.60;;;17.94;40.35;100404.63;5077902;28;20105;-82
2023/01/25 06:07:35;;;;;;;4.90;3.47;;;17.10;71.60;;;17.96;40.37;100404.31;5113286;28;20043;-82
2023/01/25 06:10:02;;;;;;;6.30;4.10;;;17.10;71.60;;;17.94;40.43;100404.63;5059414;28;20046;-83
2023/01/25 06:12:28;;;;;;;6.63;3.78;;;17.10;71.30;;;17.93;40.33;100413.94;5066128;28;20040;-83
2023/01/25 06:14:55;;;;;;;7.72;4.32;;;17.10;71.60;;;17.96;40.43;100415.31;5095717;28;20125;-83
2023/01/25 06:17:21;;;;;;;5.50;3.75;;;17.10;71.60;;;17.93;40.60;100413.94;5097955;28;20039;-83
2023/01/25 06:19:47;;;;;;;8.13;4.03;;;17.10;71.60;;;17.91;40.44;100410.69;5080327;27;20042;-83
2023/01/25 06:22:13;;;;;;;7.20;4.50;;;17.00;71.50;;;17.90;40.50;100410.97;5095993;28;20114;-83
2023/01/25 06:24:39;;;;;;;6.13;3.97;;;17.00;71.70;;;17.90;40.33;100406.28;5093651;28;20050;-83
2023/01/25 06:27:05;;;;;;;5.72;3.70;;;17.00;71.50;;;17.93;40.47;100408.47;5065175;28;20039;-83
2023/01/25 06:29:32;;;;;;;5.55;4.55;;;17.00;71.70;;;17.88;40.53;100400.25;5096033;28;20047;-83
2023/01/25 06:31:58;;;;;;;4.97;2.88;;;17.00;71.70;;;17.91;40.32;100405.19;5097621;28;20146;-83
2023/01/25 06:34:24;;;;;;;5.78;3.28;;;17.00;71.80;;;17.93;40.34;100400.22;5096004;28;20114;-82
2023/01/25 06:36:50;;;;;;;3.97;3.33;;;17.00;71.60;;;17.89;40.60;100401.09;5096854;28;20046;-83
2023/01/25 06:39:16;;;;;;;7.35;3.30;;;17.00;71.70;;;17.89;40.43;100396.41;5111899;28;20035;-82
2023/01/25 06:41:42;;;;;;;6.15;3.70;;;17.00;71.50;;;17.91;40.33;100399.72;5091691;28;20052;-82
2023/01/25 06:44:08;;;;;;;4.50;3.42;;;17.00;71.60;;;17.85;40.49;100392.59;5109834;28;20036;-82
2023/01/25 06:46:34;;;;;;;5.43;3.65;;;17.00;71.70;;;17.84;40.72;100388.22;5095225;28;20539;-82
2023/01/25 06:49:00;;;;;;;7.70;3.85;;;17.00;71.80;;;17.86;40.53;100385.16;5093844;28;20035;-82
2023/01/25 06:51:26;;;;;;;5.53;4.03;;;17.00;71.80;;;17.88;40.59;100394.75;5089650;28;20583;-83
2023/01/25 06:53:52;;;;;;;6.47;4.53;;;17.00;71.70;;;17.79;40.51;100386.31;5093992;28;20062;-83
2023/01/25 06:56:20;;;;;;;6.20;3.95;;;17.00;71.50;;;17.82;40.57;100381.38;5107317;28;20036;-82
2023/01/25 06:58:47;;;;;;;4.30;2.92;;;16.90;71.70;;;17.83;40.44;100383.81;5074363;28;20043;-82
2023/01/25 07:01:18;;;;;;;5.80;3.63;;;17.00;71.70;;;17.85;40.48;100378.06;5087305;28;20398;-82
2023/01/25 07:03:50;;;;;;;4.67;3.40;;;16.90;71.80;;;17.81;40.64;100380.56;5075977;28;20040;-82
2023/01/25 07:06:17;;;;;;;7.32;4.72;;;17.00;71.80;;;17.83;40.44;100385.75;5072993;28;20299;-82
2023/01/25 07:08:43;;;;;;;4.32;3.50;;;16.90;71.70;;;17.82;40.42;100379.44;5074972;28;20040;-82
2023/01/25 07:11:12;;;;;;;5.10;4.00;;;16.90;71.80;;;17.82;40.58;100387.66;5074111;28;20051;-82
2023/01/25 07:13:41;;;;;;;5.97;3.80;;;16.80;71.80;;;17.80;40.37;100378.91;5074845;28;20058;-82
2023/01/25 07:16:11;;;;;;;5.47;3.55;;;16.80;71.80;;;17.83;40.54;100378.31;5090986;28;20039;-81
2023/01/25 07:18:41;;;;;;;4.90;3.25;;;16.90;71.90;;;17.78;40.31;100368.19;5071063;28;20070;-82
2023/01/25 07:21:13;;;;;;;4.65;3.20;;;16.90;71.70;;;17.82;40.35;100373.94;5073271;28;20047;-82
2023/01/25 07:23:40;;;;;;;7.10;3.95;;;16.90;71.70;;;17.83;40.51;100374.75;5077290;28;20048;-82
2023/01/25 07:26:15;;;;;;;4.35;3.38;;;16.90;71.70;;;17.78;40.59;100361.84;5077960;28;20039;-83
2023/01/25 07:28:46;;;;;;;6.53;3.28;;;16.90;71.80;;;17.80;40.53;100365.16;5107434;28;20044;-83
2023/01/25 07:31:13;;;;;;;5.40;3.25;;;16.90;71.60;;;17.84;40.34;100376.44;5054183;28;20544;-83
2023/01/25 07:33:39;;;;;;;4.47;3.00;;;16.90;71.60;;;17.85;40.09;100367.06;5076561;28;20488;-83
2023/01/25 07:36:07;;;;;;;7.88;3.60;;;16.90;71.60;;;17.80;40.58;100376.16;5087730;28;20506;-82
2023/01/25 07:38:33;;;;;;;4.82;3.78;;;16.90;71.60;;;17.81;40.22;100368.72;5080201;28;20039;-82
2023/01/25 07:40:59;;;;;;;5.85;3.03;;;16.90;71.80;;;17.80;40.32;100370.66;5059359;28;20054;-82
2023/01/25 07:43:25;;;;;;;4.05;3.25;;;16.90;71.70;;;17.81;40.20;100372.31;5092491;28;20032;-82
2023/01/25 07:45:52;;;;;;;5.15;3.70;;;16.90;71.60;;;17.82;40.32;100362.16;5076057;28;20753;-82
2023/01/25 07:48:19;;;;;;;6.00;3.55;;;16.90;71.70;;;17.81;40.49;100360.50;5096764;28;20811;-82
2023/01/25 07:50:45;;;;;;;3.53;2.80;;;16.80;71.80;;;17.83;40.26;100358.28;5084824;28;20057;-82
2023/01/25 07:53:15;;;;;;;4.20;3.33;;;16.90;71.90;;;17.80;40.33;100348.69;5084594;28;20031;-82
2023/01/25 07:55:41;;;;;;;6.43;3.55;;;16.80;71.60;;;17.81;40.32;100342.13;5098929;28;20114;-82
2023/01/25 07:58:09;;;;;;;3.75;3.13;;;16.80;71.80;;;17.84;40.36;100347.03;5102405;28;20040;-83
2023/01/25 08:00:36;;;;;;;4.95;3.15;;;16.90;71.70;;;17.79;40.43;100336.91;5095921;28;20043;-83
2023/01/25 08:03:02;;;;;;;3.05;2.45;;;16.90;71.60;;;17.86;40.29;100347.59;5100447;28;20065;-83
2023/01/25 08:05:28;;;;;;;5.30;3.05;;;16.90;71.70;;;17.82;40.25;100342.94;5084317;28;20057;-83
2023/01/25 08:07:54;;;;;;;4.45;3.58;;;16.90;71.60;;;17.87;40.34;100343.72;5084034;28;20039;-83
2023/01/25 08:10:20;;;;;;;5.30;3.13;;;16.90;71.60;;;17.88;40.22;100350.03;5099500;28;20039;-83
2023/01/25 08:12:46;;;;;;;4.25;3.33;;;16.90;71.60;;;17.87;40.02;100349.22;5095539;28;20064;-82
2023/01/25 08:15:13;;;;;;;5.25;3.00;;;16.90;71.60;;;17.88;40.13;100345.34;5113946;28;20136;-83
2023/01/25 08:17:39;;;;;;;3.08;2.78;;;16.90;71.40;;;17.88;40.13;100348.09;5082805;28;20552;-83
2023/01/25 08:20:07;;;;;;;4.88;3.10;;;16.90;71.60;;;17.90;40.19;100342.34;5096878;28;20044;-83
2023/01/25 08:22:34;;;;;;;3.00;2.53;;;16.90;71.70;;;17.90;40.26;100343.16;5067082;28;20134;-83
2023/01/25 08:25:01;;;;;;;5.63;3.50;;;16.90;71.50;;;17.90;40.15;100334.09;5078689;28;20032;-83
2023/01/25 08:27:27;;;;;;;4.45;2.88;;;16.90;71.50;;;17.85;40.17;100332.19;5099843;28;20395;-83
2023/01/25 08:29:54;;;;;;;3.90;3.10;;;16.90;71.50;;;17.88;40.25;100326.13;5099684;28;20058;-82
2023/01/25 08:32:20;;;;;;;4.50;3.10;;;16.90;71.50;;;17.88;40.14;100325.31;5082512;28;20463;-83
2023/01/25 08:34:49;;;;;;;4.05;2.92;;;16.90;71.50;;;17.88;40.09;100317.91;5081984;28;20040;-83
2023/01/25 08:37:15;;;;;;;4.15;2.70;;;16.90;71.60;;;17.88;40.11;100322.56;5107869;28;20085;-83
2023/01/25 08:39:41;;;;;;;3.53;3.00;;;16.90;71.40;;;17.92;39.76;100318.97;5078974;28;20050;-83
2023/01/25 08:42:07;;;;;;;4.43;2.90;;;16.90;71.40;;;17.88;40.15;100317.09;5078078;28;20491;-83
2023/01/25 08:44:34;;;;;;;2.65;2.45;;;16.90;71.30;;;17.91;40.26;100300.88;5064353;28;20517;-82
2023/01/25 08:47:00;;;;;;;3.78;2.90;;;16.90;71.40;;;17.93;40.09;100309.63;5107239;28;20047;-83
2023/01/25 08:49:29;;;;;;;2.97;2.53;;;16.90;71.30;;;17.92;39.76;100318.16;5077951;28;20115;-82
2023/01/25 08:51:55;;;;;;;3.30;2.50;;;17.00;71.40;;;17.92;40.10;100309.94;5110634;28;20406;-82
2023/01/25 08:54:23;;;;;;;3.33;2.80;;;17.00;71.50;;;17.93;39.91;100314.31;5080915;28;20047;-82
2023/01/25 08:56:49;;;;;;;3.45;2.88;;;17.00;71.50;;;17.95;39.89;100303.88;5081369;28;20048;-81
2023/01/25 08:59:15;;;;;;;4.40;2.38;;;17.00;71.40;;;17.91;40.14;100308.28;5081776;28;20451;-82
2023/01/25 09:01:42;;;;;;;4.90;2.95;;;17.00;71.20;;;17.92;39.98;100309.94;5077613;28;20062;-82
2023/01/25 09:04:08;;;;;;;2.88;2.20;;;17.00;71.40;;;17.97;40.04;100307.16;5064549;28;20036;-82
2023/01/25 09:06:34;;;;;;;3.47;2.78;;;17.00;71.40;;;17.95;39.89;100312.09;5074626;28;20053;-82
2023/01/25 09:09:00;;;;;;;3.90;2.78;;;17.00;71.50;;;17.94;40.03;100311.28;5075286;28;20046;-82
2023/01/25 09:11:29;;;;;;;3.28;2.83;;;17.00;71.40;;;17.98;39.80;100311.53;5105131;28;20511;-82
2023/01/25 09:13:55;;;;;;;2.65;2.42;;;17.00;71.40;;;18.02;39.72;100307.09;5059760;28;20118;-82
2023/01/25 09:16:27;;;;;;;5.00;3.05;;;17.00;71.30;;;18.02;39.94;100295.31;5071116;27;20036;-82
2023/01/25 09:18:59;;;;;;;2.70;2.25;;;17.10;71.20;;;18.00;39.95;100301.06;5092241;28;20043;-82
2023/01/25 09:21:25;;;;;;;;;;;17.10;71.00;;;17.96;39.93;100295.34;5078809;28;20044;-82
2023/01/25 09:23:52;;;;;;;3.35;2.55;;;17.10;70.90;;;17.97;39.97;100294.25;5075141;28;20376;-82
2023/01/25 09:26:18;;;;;;;4.05;2.60;;;17.10;71.00;;;17.94;40.24;100294.00;5085944;28;20089;-82
2023/01/25 09:28:49;;;;;;;3.92;3.20;;;17.00;71.00;;;17.96;39.82;100286.28;5094019;28;20057;-82
2023/01/25 09:31:15;;;;;;;5.15;3.00;;;17.00;71.20;;;17.96;40.03;100281.63;5090807;28;20475;-82
2023/01/25 09:33:42;;;;;;;5.30;2.78;;;17.00;71.20;;;17.99;40.08;100281.06;5073602;28;20054;-82
2023/01/25 09:36:08;;;;;;;4.80;3.00;;;17.10;71.20;;;18.01;39.75;100272.50;5073170;28;20040;-82
2023/01/25 09:38:34;;;;;;;6.63;3.65;;;17.00;71.00;;;18.04;39.79;100273.84;5058442;28;20039;-82
2023/01/25 09:41:41;;;;;;;8.85;4.03;;;17.10;71.00;;;18.04;39.90;100271.13;5091311;28;20043;-82
2023/01/25 09:44:51;;;;;;;4.90;3.75;;;17.20;70.90;;;18.05;39.94;100261.78;5106283;28;20126;-82
2023/01/25 09:47:28;;;;;;;6.40;4.15;;;17.10;70.80;;;18.00;39.91;100255.22;5105841;28;20063;-82
2023/01/25 09:50:24;;;;;;;7.13;4.47;;;17.10;70.80;;;18.04;39.94;100255.47;5076804;28;20040;-82
2023/01/25 09:53:24;;;;;;;7.53;3.85;;;17.20;70.90;;;18.08;39.85;100248.28;5105883;28;20036;-82
2023/01/25 09:55:58;;;;;;;10.40;4.85;;;17.20;70.70;;;18.04;39.80;100250.00;5097555;28;20042;-82
2023/01/25 09:58:45;;;;;;;11.68;4.72;;;17.20;70.70;;;18.10;39.54;100243.34;5075184;28;20036;-82
2023/01/25 10:01:34;;;;;;;9.75;4.95;;;17.20;70.80;;;18.07;39.82;100237.63;5093490;28;20160;-82
2023/01/25 10:04:13;;;;;;;11.27;4.95;;;17.20;70.90;;;18.05;39.71;100226.91;5098011;28;20596;-83
2023/01/25 10:06:41;;;;;;;11.77;4.90;;;17.20;70.70;;;18.07;39.67;100232.13;5091471;28;20122;-82
2023/01/25 10:09:38;;;;;;;14.93;5.53;;;17.20;70.70;;;18.08;39.72;100228.25;5075139;28;20035;-82
2023/01/25 10:12:18;;;;;;;9.02;4.60;;;17.20;70.60;;;18.07;39.74;100221.13;5106288;28;20027;-82
2023/01/25 10:14:44;;;;;;;10.07;5.15;;;17.20;70.50;;;18.10;39.55;100220.56;5091053;28;20040;-82
2023/01/25 10:17:31;;;;;;;11.85;6.13;;;17.20;70.40;;;18.06;39.71;100214.00;5074757;28;20542;-82
2023/01/25 10:20:18;;;;;;;11.30;6.65;;;17.20;70.50;;;18.09;39.53;100206.00;5107680;27;20036;-82
2023/01/25 10:23:07;;;;;;;11.25;6.00;;;17.20;70.50;;;18.11;39.53;100203.78;5109845;28;20044;-82